sensor_id;sensor_type;location;lat;lon;timestamp;temperature;humidity
52397;DHT22;38322;53.108;6.308;2023-06-22T05:00:25;15.70;99.90
52397;DHT22;38322;53.108;6.308;2023-06-22T05:02:52;15.80;99.90
52397;DHT22;38322;53.108;6.308;2023-06-22T05:05:18;15.90;99.90
52397;DHT22;38322;53.108;6.308;2023-06-22T05:07:45;16.10;99.90
52397;DHT22;38322;53.108;6.308;2023-06-22T05:10:14;16.20;99.90
52397;DHT22;38322;53.108;6.308;2023-06-22T05:12:41;16.30;99.90
52397;DHT22;38322;53.108;6.308;2023-06-22T05:15:08;16.50;99.90
52397;DHT22;38322;53.108;6.308;2023-06-22T05:17:34;16.60;99.90
52397;DHT22;38322;53.108;6.308;2023-06-22T05:20:01;16.70;99.90
52397;DHT22;38322;53.108;6.308;2023-06-22T05:22:27;16.80;99.90
52397;DHT22;38322;53.108;6.308;2023-06-22T05:24:53;16.90;99.90
52397;DHT22;38322;53.108;6.308;2023-06-22T05:27:19;17.00;99.90
52397;DHT22;38322;53.108;6.308;2023-06-22T05:29:44;17.10;99.90
52397;DHT22;38322;53.108;6.308;2023-06-22T05:32:10;17.30;99.90
52397;DHT22;38322;53.108;6.308;2023-06-22T05:34:36;17.40;99.90
52397;DHT22;38322;53.108;6.308;2023-06-22T05:37:03;17.40;99.90
52397;DHT22;38322;53.108;6.308;2023-06-22T05:39:29;17.50;99.90
52397;DHT22;38322;53.108;6.308;2023-06-22T05:41:55;17.60;99.90
52397;DHT22;38322;53.108;6.308;2023-06-22T05:44:20;17.70;99.90
52397;DHT22;38322;53.108;6.308;2023-06-22T05:46:46;17.80;99.90
52397;DHT22;38322;53.108;6.308;2023-06-22T05:49:14;17.80;99.90
52397;DHT22;38322;53.108;6.308;2023-06-22T05:51:40;17.80;99.90
52397;DHT22;38322;53.108;6.308;2023-06-22T05:54:06;17.90;99.90
52397;DHT22;38322;53.108;6.308;2023-06-22T05:56:33;17.90;99.90
52397;DHT22;38322;53.108;6.308;2023-06-22T05:58:59;17.90;99.90
52397;DHT22;38322;53.108;6.308;2023-06-22T06:01:25;18.00;99.90
52397;DHT22;38322;53.108;6.308;2023-06-22T06:03:52;18.00;99.90
52397;DHT22;38322;53.108;6.308;2023-06-22T06:06:18;18.10;99.90
52397;DHT22;38322;53.108;6.308;2023-06-22T06:08:46;18.10;99.90
52397;DHT22;38322;53.108;6.308;2023-06-22T06:11:12;18.20;99.90
52397;DHT22;38322;53.108;6.308;2023-06-22T06:13:38;18.30;99.90
52397;DHT22;38322;53.108;6.308;2023-06-22T06:16:04;18.50;99.90
52397;DHT22;38322;53.108;6.308;2023-06-22T06:18:29;18.50;99.90
52397;DHT22;38322;53.108;6.308;2023-06-22T06:20:55;18.60;99.90
52397;DHT22;38322;53.108;6.308;2023-06-22T06:23:21;18.70;99.90
52397;DHT22;38322;53.108;6.308;2023-06-22T06:25:47;18.70;99.90
52397;DHT22;38322;53.108;6.308;2023-06-22T06:28:13;18.80;99.90
52397;DHT22;38322;53.108;6.308;2023-06-22T06:30:39;18.90;99.90
52397;DHT22;38322;53.108;6.308;2023-06-22T06:33:04;18.90;99.90
52397;DHT22;38322;53.108;6.308;2023-06-22T06:35:34;19.00;99.90
52397;DHT22;38322;53.108;6.308;2023-06-22T06:38:00;19.10;99.90
52397;DHT22;38322;53.108;6.308;2023-06-22T06:40:26;19.20;99.90
52397;DHT22;38322;53.108;6.308;2023-06-22T06:42:52;19.30;99.90
52397;DHT22;38322;53.108;6.308;2023-06-22T06:45:21;19.40;99.90
52397;DHT22;38322;53.108;6.308;2023-06-22T06:47:49;19.50;99.90
52397;DHT22;38322;53.108;6.308;2023-06-22T06:50:15;19.60;99.90
52397;DHT22;38322;53.108;6.308;2023-06-22T06:52:41;19.70;99.90
52397;DHT22;38322;53.108;6.308;2023-06-22T06:55:07;19.80;99.90
52397;DHT22;38322;53.108;6.308;2023-06-22T06:57:39;19.80;99.90
52397;DHT22;38322;53.108;6.308;2023-06-22T07:00:07;19.80;99.90
52397;DHT22;38322;53.108;6.308;2023-06-22T07:02:38;19.90;99.90
52397;DHT22;38322;53.108;6.308;2023-06-22T07:05:05;19.90;99.90
52397;DHT22;38322;53.108;6.308;2023-06-22T07:07:31;19.90;99.90
52397;DHT22;38322;53.108;6.308;2023-06-22T07:09:57;20.10;99.90
52397;DHT22;38322;53.108;6.308;2023-06-22T07:12:23;20.10;99.90
52397;DHT22;38322;53.108;6.308;2023-06-22T07:14:49;20.20;99.90
52397;DHT22;38322;53.108;6.308;2023-06-22T07:17:15;20.30;99.90
52397;DHT22;38322;53.108;6.308;2023-06-22T07:19:41;20.40;99.90
52397;DHT22;38322;53.108;6.308;2023-06-22T07:22:08;20.50;99.90
52397;DHT22;38322;53.108;6.308;2023-06-22T07:24:33;20.40;99.90
52397;DHT22;38322;53.108;6.308;2023-06-22T07:26:59;20.40;99.90
52397;DHT22;38322;53.108;6.308;2023-06-22T07:29:25;20.40;99.90
52397;DHT22;38322;53.108;6.308;2023-06-22T07:31:52;20.50;99.90
52397;DHT22;38322;53.108;6.308;2023-06-22T07:34:19;20.60;99.90
52397;DHT22;38322;53.108;6.308;2023-06-22T07:36:45;20.70;99.90
52397;DHT22;38322;53.108;6.308;2023-06-22T07:39:11;20.70;99.90
52397;DHT22;38322;53.108;6.308;2023-06-22T07:41:39;20.80;99.90
52397;DHT22;38322;53.108;6.308;2023-06-22T07:44:07;20.90;99.90
52397;DHT22;38322;53.108;6.308;2023-06-22T07:46:33;20.90;99.90
52397;DHT22;38322;53.108;6.308;2023-06-22T07:48:59;20.90;99.90
52397;DHT22;38322;53.108;6.308;2023-06-22T07:51:25;20.90;99.90
52397;DHT22;38322;53.108;6.308;2023-06-22T07:53:51;21.00;99.90
52397;DHT22;38322;53.108;6.308;2023-06-22T07:56:17;21.10;99.90
52397;DHT22;38322;53.108;6.308;2023-06-22T07:58:46;21.10;99.90
52397;DHT22;38322;53.108;6.308;2023-06-22T08:01:14;21.10;99.90
52397;DHT22;38322;53.108;6.308;2023-06-22T08:03:40;21.20;99.90
52397;DHT22;38322;53.108;6.308;2023-06-22T08:06:07;21.20;99.90
52397;DHT22;38322;53.108;6.308;2023-06-22T08:08:35;21.30;99.90
52397;DHT22;38322;53.108;6.308;2023-06-22T08:11:01;21.50;99.90
52397;DHT22;38322;53.108;6.308;2023-06-22T08:13:27;21.70;99.90
52397;DHT22;38322;53.108;6.308;2023-06-22T08:15:53;21.80;99.90
52397;DHT22;38322;53.108;6.308;2023-06-22T08:18:19;21.90;99.90
52397;DHT22;38322;53.108;6.308;2023-06-22T08:20:45;22.00;99.90
52397;DHT22;38322;53.108;6.308;2023-06-22T08:23:11;22.00;99.90
52397;DHT22;38322;53.108;6.308;2023-06-22T08:25:37;22.20;99.90
52397;DHT22;38322;53.108;6.308;2023-06-22T08:28:04;22.20;99.90
52397;DHT22;38322;53.108;6.308;2023-06-22T08:30:30;22.20;99.90
52397;DHT22;38322;53.108;6.308;2023-06-22T08:32:56;22.20;99.90
52397;DHT22;38322;53.108;6.308;2023-06-22T08:35:23;22.30;99.90
52397;DHT22;38322;53.108;6.308;2023-06-22T08:37:49;22.30;99.90
52397;DHT22;38322;53.108;6.308;2023-06-22T08:40:19;22.40;99.90
52397;DHT22;38322;53.108;6.308;2023-06-22T08:42:47;22.30;99.90
52397;DHT22;38322;53.108;6.308;2023-06-22T08:45:13;22.40;99.90
52397;DHT22;38322;53.108;6.308;2023-06-22T08:47:40;22.40;99.90
52397;DHT22;38322;53.108;6.308;2023-06-22T08:50:07;22.50;99.90
52397;DHT22;38322;53.108;6.308;2023-06-22T08:52:34;22.60;99.90
52397;DHT22;38322;53.108;6.308;2023-06-22T08:55:00;22.70;99.90
52397;DHT22;38322;53.108;6.308;2023-06-22T08:57:27;22.80;99.90
52397;DHT22;38322;53.108;6.308;2023-06-22T08:59:54;22.80;99.90
52397;DHT22;38322;53.108;6.308;2023-06-22T09:02:24;22.80;99.90
52397;DHT22;38322;53.108;6.308;2023-06-22T09:04:50;22.80;99.90
52397;DHT22;38322;53.108;6.308;2023-06-22T09:07:21;22.80;99.90
52397;DHT22;38322;53.108;6.308;2023-06-22T09:09:49;22.90;99.90
52397;DHT22;38322;53.108;6.308;2023-06-22T09:12:15;23.00;99.90
52397;DHT22;38322;53.108;6.308;2023-06-22T09:14:41;23.10;99.90
52397;DHT22;38322;53.108;6.308;2023-06-22T09:17:06;23.00;99.90
52397;DHT22;38322;53.108;6.308;2023-06-22T09:19:32;22.90;99.90
52397;DHT22;38322;53.108;6.308;2023-06-22T09:21:58;22.80;99.90
52397;DHT22;38322;53.108;6.308;2023-06-22T09:24:24;22.70;99.90
52397;DHT22;38322;53.108;6.308;2023-06-22T09:26:50;22.70;99.90
52397;DHT22;38322;53.108;6.308;2023-06-22T09:29:16;22.70;99.90
52397;DHT22;38322;53.108;6.308;2023-06-22T09:31:42;22.80;99.90
52397;DHT22;38322;53.108;6.308;2023-06-22T09:34:08;22.80;99.90
52397;DHT22;38322;53.108;6.308;2023-06-22T09:36:34;22.90;99.90
52397;DHT22;38322;53.108;6.308;2023-06-22T09:39:01;23.00;99.90
52397;DHT22;38322;53.108;6.308;2023-06-22T09:41:31;23.20;99.90
52397;DHT22;38322;53.108;6.308;2023-06-22T09:43:57;23.30;99.90
52397;DHT22;38322;53.108;6.308;2023-06-22T09:46:23;23.40;99.90
52397;DHT22;38322;53.108;6.308;2023-06-22T09:48:51;23.50;99.90
52397;DHT22;38322;53.108;6.308;2023-06-22T09:51:17;23.50;99.90
52397;DHT22;38322;53.108;6.308;2023-06-22T09:53:44;23.20;99.90
52397;DHT22;38322;53.108;6.308;2023-06-22T09:56:10;23.10;99.90
52397;DHT22;38322;53.108;6.308;2023-06-22T09:58:42;23.20;99.90
52397;DHT22;38322;53.108;6.308;2023-06-22T10:01:08;23.30;99.90
52397;DHT22;38322;53.108;6.308;2023-06-22T10:03:36;23.60;99.90
52397;DHT22;38322;53.108;6.308;2023-06-22T10:06:02;23.50;99.90
52397;DHT22;38322;53.108;6.308;2023-06-22T10:08:28;23.60;99.90
52397;DHT22;38322;53.108;6.308;2023-06-22T10:10:54;23.60;99.90
52397;DHT22;38322;53.108;6.308;2023-06-22T10:13:20;23.50;99.90
52397;DHT22;38322;53.108;6.308;2023-06-22T10:15:46;23.80;99.90
52397;DHT22;38322;53.108;6.308;2023-06-22T10:18:17;23.90;99.90
52397;DHT22;38322;53.108;6.308;2023-06-22T10:20:43;23.90;99.90
52397;DHT22;38322;53.108;6.308;2023-06-22T10:23:09;23.90;99.90
52397;DHT22;38322;53.108;6.308;2023-06-22T10:25:35;24.10;99.90
52397;DHT22;38322;53.108;6.308;2023-06-22T10:28:01;24.10;99.90
52397;DHT22;38322;53.108;6.308;2023-06-22T10:30:27;24.10;99.90
52397;DHT22;38322;53.108;6.308;2023-06-22T10:32:54;24.30;99.90
52397;DHT22;38322;53.108;6.308;2023-06-22T10:35:20;24.20;99.90
52397;DHT22;38322;53.108;6.308;2023-06-22T10:37:46;24.40;99.90
52397;DHT22;38322;53.108;6.308;2023-06-22T10:40:13;24.50;99.90
52397;DHT22;38322;53.108;6.308;2023-06-22T10:42:41;24.40;99.90
52397;DHT22;38322;53.108;6.308;2023-06-22T10:45:07;24.20;99.90
52397;DHT22;38322;53.108;6.308;2023-06-22T10:47:34;24.20;99.90
52397;DHT22;38322;53.108;6.308;2023-06-22T10:50:02;24.20;99.90
52397;DHT22;38322;53.108;6.308;2023-06-22T10:52:28;24.30;99.90
52397;DHT22;38322;53.108;6.308;2023-06-22T10:54:53;24.30;99.90
52397;DHT22;38322;53.108;6.308;2023-06-22T10:57:19;24.40;99.90
52397;DHT22;38322;53.108;6.308;2023-06-22T10:59:45;24.40;99.90
52397;DHT22;38322;53.108;6.308;2023-06-22T11:02:11;24.40;99.90
52397;DHT22;38322;53.108;6.308;2023-06-22T11:04:37;24.40;99.90
52397;DHT22;38322;53.108;6.308;2023-06-22T11:07:03;24.40;99.90
52397;DHT22;38322;53.108;6.308;2023-06-22T11:09:29;24.50;99.90
52397;DHT22;38322;53.108;6.308;2023-06-22T11:11:55;24.60;99.90
52397;DHT22;38322;53.108;6.308;2023-06-22T11:14:22;24.60;99.90
52397;DHT22;38322;53.108;6.308;2023-06-22T11:16:48;24.70;99.90
52397;DHT22;38322;53.108;6.308;2023-06-22T11:19:14;24.90;99.90
52397;DHT22;38322;53.108;6.308;2023-06-22T11:21:40;25.00;99.90
52397;DHT22;38322;53.108;6.308;2023-06-22T11:24:06;24.90;99.90
52397;DHT22;38322;53.108;6.308;2023-06-22T11:26:32;24.80;99.90
52397;DHT22;38322;53.108;6.308;2023-06-22T11:28:58;24.80;99.90
52397;DHT22;38322;53.108;6.308;2023-06-22T11:31:24;24.80;99.90
52397;DHT22;38322;53.108;6.308;2023-06-22T11:33:50;24.80;99.90
52397;DHT22;38322;53.108;6.308;2023-06-22T11:36:16;24.80;99.90
52397;DHT22;38322;53.108;6.308;2023-06-22T11:38:43;24.70;99.90
52397;DHT22;38322;53.108;6.308;2023-06-22T11:41:10;24.60;99.90
52397;DHT22;38322;53.108;6.308;2023-06-22T11:43:36;24.60;99.90
52397;DHT22;38322;53.108;6.308;2023-06-22T11:46:03;24.60;99.90
52397;DHT22;38322;53.108;6.308;2023-06-22T11:48:29;24.70;99.90
52397;DHT22;38322;53.108;6.308;2023-06-22T11:50:55;24.60;99.90
52397;DHT22;38322;53.108;6.308;2023-06-22T11:53:23;24.60;99.90
52397;DHT22;38322;53.108;6.308;2023-06-22T11:55:49;24.50;99.90
52397;DHT22;38322;53.108;6.308;2023-06-22T11:58:15;24.60;99.90
52397;DHT22;38322;53.108;6.308;2023-06-22T12:00:41;24.60;99.90
52397;DHT22;38322;53.108;6.308;2023-06-22T12:03:08;24.70;99.90
52397;DHT22;38322;53.108;6.308;2023-06-22T12:05:34;24.80;99.90
52397;DHT22;38322;53.108;6.308;2023-06-22T12:08:00;24.80;99.90
52397;DHT22;38322;53.108;6.308;2023-06-22T12:10:27;24.70;99.90
52397;DHT22;38322;53.108;6.308;2023-06-22T12:12:58;24.70;99.90
52397;DHT22;38322;53.108;6.308;2023-06-22T12:15:26;24.70;99.90
52397;DHT22;38322;53.108;6.308;2023-06-22T12:17:52;24.70;99.90
52397;DHT22;38322;53.108;6.308;2023-06-22T12:20:18;24.70;99.90
52397;DHT22;38322;53.108;6.308;2023-06-22T12:22:44;24.70;99.90
52397;DHT22;38322;53.108;6.308;2023-06-22T12:25:11;24.70;99.90
52397;DHT22;38322;53.108;6.308;2023-06-22T12:27:37;24.60;99.90
52397;DHT22;38322;53.108;6.308;2023-06-22T12:30:04;24.50;99.90
52397;DHT22;38322;53.108;6.308;2023-06-22T12:32:30;24.40;99.90
52397;DHT22;38322;53.108;6.308;2023-06-22T12:34:56;24.40;99.90
52397;DHT22;38322;53.108;6.308;2023-06-22T12:37:23;24.30;99.90
52397;DHT22;38322;53.108;6.308;2023-06-22T12:39:48;24.40;99.90
52397;DHT22;38322;53.108;6.308;2023-06-22T12:42:15;24.30;99.90
52397;DHT22;38322;53.108;6.308;2023-06-22T12:44:42;24.40;99.90
52397;DHT22;38322;53.108;6.308;2023-06-22T12:47:08;24.40;99.90
52397;DHT22;38322;53.108;6.308;2023-06-22T12:49:35;24.40;99.90
52397;DHT22;38322;53.108;6.308;2023-06-22T12:52:01;24.30;99.90
52397;DHT22;38322;53.108;6.308;2023-06-22T12:54:27;24.30;99.90
52397;DHT22;38322;53.108;6.308;2023-06-22T12:56:55;24.20;99.90
52397;DHT22;38322;53.108;6.308;2023-06-22T12:59:20;24.30;99.90
52397;DHT22;38322;53.108;6.308;2023-06-22T13:01:46;24.20;99.90
52397;DHT22;38322;53.108;6.308;2023-06-22T13:04:12;24.20;99.90
52397;DHT22;38322;53.108;6.308;2023-06-22T13:06:41;24.20;99.90
52397;DHT22;38322;53.108;6.308;2023-06-22T13:09:08;24.30;99.90
52397;DHT22;38322;53.108;6.308;2023-06-22T13:11:34;24.20;99.90
52397;DHT22;38322;53.108;6.308;2023-06-22T13:14:00;24.20;99.90
52397;DHT22;38322;53.108;6.308;2023-06-22T13:16:26;24.20;99.90
52397;DHT22;38322;53.108;6.308;2023-06-22T13:18:52;24.20;99.90
52397;DHT22;38322;53.108;6.308;2023-06-22T13:21:18;24.20;99.90
52397;DHT22;38322;53.108;6.308;2023-06-22T13:23:43;24.20;99.90
52397;DHT22;38322;53.108;6.308;2023-06-22T13:26:09;24.10;99.90
52397;DHT22;38322;53.108;6.308;2023-06-22T13:28:35;24.10;99.90
52397;DHT22;38322;53.108;6.308;2023-06-22T13:31:01;24.10;99.90
52397;DHT22;38322;53.108;6.308;2023-06-22T13:33:27;24.00;99.90
52397;DHT22;38322;53.108;6.308;2023-06-22T13:35:53;23.90;99.90
52397;DHT22;38322;53.108;6.308;2023-06-22T13:38:19;24.00;99.90
52397;DHT22;38322;53.108;6.308;2023-06-22T13:40:44;23.90;99.90
52397;DHT22;38322;53.108;6.308;2023-06-22T13:43:10;23.80;99.90
52397;DHT22;38322;53.108;6.308;2023-06-22T13:45:36;23.70;99.90
52397;DHT22;38322;53.108;6.308;2023-06-22T13:48:02;23.60;99.90
52397;DHT22;38322;53.108;6.308;2023-06-22T13:50:28;23.50;99.90
52397;DHT22;38322;53.108;6.308;2023-06-22T13:52:55;23.40;99.90
52397;DHT22;38322;53.108;6.308;2023-06-22T13:55:22;23.30;99.90
52397;DHT22;38322;53.108;6.308;2023-06-22T13:57:49;23.30;99.90
52397;DHT22;38322;53.108;6.308;2023-06-22T14:00:15;23.20;99.90
52397;DHT22;38322;53.108;6.308;2023-06-22T14:02:41;23.10;99.90
52397;DHT22;38322;53.108;6.308;2023-06-22T14:05:07;23.10;99.90
52397;DHT22;38322;53.108;6.308;2023-06-22T14:07:33;23.00;99.90
52397;DHT22;38322;53.108;6.308;2023-06-22T14:10:00;23.00;99.90
52397;DHT22;38322;53.108;6.308;2023-06-22T14:12:26;22.90;99.90
52397;DHT22;38322;53.108;6.308;2023-06-22T14:14:52;22.90;99.90
52397;DHT22;38322;53.108;6.308;2023-06-22T14:17:18;22.80;99.90
52397;DHT22;38322;53.108;6.308;2023-06-22T14:19:49;22.70;99.90
52397;DHT22;38322;53.108;6.308;2023-06-22T14:22:18;22.70;99.90
52397;DHT22;38322;53.108;6.308;2023-06-22T14:24:46;22.60;99.90
52397;DHT22;38322;53.108;6.308;2023-06-22T14:27:11;22.50;99.90
52397;DHT22;38322;53.108;6.308;2023-06-22T14:29:37;22.50;99.90
52397;DHT22;38322;53.108;6.308;2023-06-22T14:32:03;22.50;99.90
52397;DHT22;38322;53.108;6.308;2023-06-22T14:34:32;22.40;99.90
52397;DHT22;38322;53.108;6.308;2023-06-22T14:36:58;22.30;99.90
52397;DHT22;38322;53.108;6.308;2023-06-22T14:39:24;22.30;99.90
52397;DHT22;38322;53.108;6.308;2023-06-22T14:41:50;22.30;99.90
52397;DHT22;38322;53.108;6.308;2023-06-22T14:44:16;22.20;99.90
52397;DHT22;38322;53.108;6.308;2023-06-22T14:46:41;22.30;99.90
52397;DHT22;38322;53.108;6.308;2023-06-22T14:49:07;22.30;99.90
52397;DHT22;38322;53.108;6.308;2023-06-22T14:51:33;22.20;99.90
52397;DHT22;38322;53.108;6.308;2023-06-22T14:53:59;22.20;99.90
52397;DHT22;38322;53.108;6.308;2023-06-22T14:56:25;22.30;99.90
52397;DHT22;38322;53.108;6.308;2023-06-22T14:58:50;22.30;99.90
52397;DHT22;38322;53.108;6.308;2023-06-22T15:01:17;22.20;99.90
52397;DHT22;38322;53.108;6.308;2023-06-22T15:03:43;22.20;99.90
52397;DHT22;38322;53.108;6.308;2023-06-22T15:06:09;22.10;99.90
52397;DHT22;38322;53.108;6.308;2023-06-22T15:08:37;22.10;99.90
52397;DHT22;38322;53.108;6.308;2023-06-22T15:11:04;22.10;99.90
52397;DHT22;38322;53.108;6.308;2023-06-22T15:13:31;22.00;99.90
52397;DHT22;38322;53.108;6.308;2023-06-22T15:16:00;22.00;99.90
52397;DHT22;38322;53.108;6.308;2023-06-22T15:18:25;21.90;99.90
52397;DHT22;38322;53.108;6.308;2023-06-22T15:20:52;21.90;99.90
52397;DHT22;38322;53.108;6.308;2023-06-22T15:23:18;21.70;99.90
52397;DHT22;38322;53.108;6.308;2023-06-22T15:25:44;21.60;99.90
52397;DHT22;38322;53.108;6.308;2023-06-22T15:28:12;21.50;99.90
52397;DHT22;38322;53.108;6.308;2023-06-22T15:30:38;21.40;99.90
52397;DHT22;38322;53.108;6.308;2023-06-22T15:33:04;21.40;99.90
52397;DHT22;38322;53.108;6.308;2023-06-22T15:35:30;21.30;99.90
52397;DHT22;38322;53.108;6.308;2023-06-22T15:37:56;21.30;99.90
52397;DHT22;38322;53.108;6.308;2023-06-22T15:40:22;21.30;99.90
52397;DHT22;38322;53.108;6.308;2023-06-22T15:42:50;21.30;99.90
52397;DHT22;38322;53.108;6.308;2023-06-22T15:45:16;21.30;99.90
52397;DHT22;38322;53.108;6.308;2023-06-22T15:47:42;21.30;99.90
52397;DHT22;38322;53.108;6.308;2023-06-22T15:50:08;21.20;99.90
52397;DHT22;38322;53.108;6.308;2023-06-22T15:52:34;21.10;99.90
52397;DHT22;38322;53.108;6.308;2023-06-22T15:55:00;21.10;99.90
52397;DHT22;38322;53.108;6.308;2023-06-22T15:57:26;21.10;99.90
52397;DHT22;38322;53.108;6.308;2023-06-22T15:59:53;21.10;99.90
52397;DHT22;38322;53.108;6.308;2023-06-22T16:02:19;21.00;99.90
52397;DHT22;38322;53.108;6.308;2023-06-22T16:04:46;21.00;99.90
52397;DHT22;38322;53.108;6.308;2023-06-22T16:07:13;21.00;99.90
52397;DHT22;38322;53.108;6.308;2023-06-22T16:09:39;21.00;99.90
52397;DHT22;38322;53.108;6.308;2023-06-22T16:12:05;21.00;99.90
52397;DHT22;38322;53.108;6.308;2023-06-22T16:14:31;21.00;99.90
52397;DHT22;38322;53.108;6.308;2023-06-22T16:16:57;21.00;99.90
52397;DHT22;38322;53.108;6.308;2023-06-22T16:19:24;20.90;99.90
52397;DHT22;38322;53.108;6.308;2023-06-22T16:21:50;20.90;99.90
52397;DHT22;38322;53.108;6.308;2023-06-22T16:24:16;20.90;99.90
52397;DHT22;38322;53.108;6.308;2023-06-22T16:26:43;20.90;99.90
52397;DHT22;38322;53.108;6.308;2023-06-22T16:29:10;20.80;99.90
52397;DHT22;38322;53.108;6.308;2023-06-22T16:31:36;20.80;99.90
52397;DHT22;38322;53.108;6.308;2023-06-22T16:34:02;20.70;99.90
52397;DHT22;38322;53.108;6.308;2023-06-22T16:36:28;20.70;99.90
52397;DHT22;38322;53.108;6.308;2023-06-22T16:38:54;20.60;99.90
52397;DHT22;38322;53.108;6.308;2023-06-22T16:41:20;20.60;99.90
52397;DHT22;38322;53.108;6.308;2023-06-22T16:43:47;20.50;99.90
52397;DHT22;38322;53.108;6.308;2023-06-22T16:46:13;20.50;99.90
52397;DHT22;38322;53.108;6.308;2023-06-22T16:48:39;20.40;99.90
52397;DHT22;38322;53.108;6.308;2023-06-22T16:51:06;20.40;99.90
52397;DHT22;38322;53.108;6.308;2023-06-22T16:53:32;20.40;99.90
52397;DHT22;38322;53.108;6.308;2023-06-22T16:55:59;20.30;99.90
52397;DHT22;38322;53.108;6.308;2023-06-22T16:58:25;20.30;99.90
52397;DHT22;38322;53.108;6.308;2023-06-22T17:00:51;20.20;99.90
52397;DHT22;38322;53.108;6.308;2023-06-22T17:03:26;20.20;99.90
52397;DHT22;38322;53.108;6.308;2023-06-22T17:05:59;20.20;99.90
52397;DHT22;38322;53.108;6.308;2023-06-22T17:08:29;20.20;99.90
52397;DHT22;38322;53.108;6.308;2023-06-22T17:10:58;20.20;99.90
52397;DHT22;38322;53.108;6.308;2023-06-22T17:13:25;20.10;99.90
52397;DHT22;38322;53.108;6.308;2023-06-22T17:15:56;20.10;99.90
52397;DHT22;38322;53.108;6.308;2023-06-22T17:18:24;20.10;99.90
52397;DHT22;38322;53.108;6.308;2023-06-22T17:20:51;20.00;99.90
52397;DHT22;38322;53.108;6.308;2023-06-22T17:23:18;20.00;99.90
52397;DHT22;38322;53.108;6.308;2023-06-22T17:25:46;20.00;99.90
52397;DHT22;38322;53.108;6.308;2023-06-22T17:28:12;20.00;99.90
52397;DHT22;38322;53.108;6.308;2023-06-22T17:30:38;19.90;99.90
52397;DHT22;38322;53.108;6.308;2023-06-22T17:33:08;19.90;99.90
52397;DHT22;38322;53.108;6.308;2023-06-22T17:35:45;19.90;99.90
52397;DHT22;38322;53.108;6.308;2023-06-22T17:38:20;19.90;99.90
52397;DHT22;38322;53.108;6.308;2023-06-22T17:40:46;19.80;99.90
52397;DHT22;38322;53.108;6.308;2023-06-22T17:43:12;19.80;99.90
52397;DHT22;38322;53.108;6.308;2023-06-22T17:45:42;19.70;99.90
52397;DHT22;38322;53.108;6.308;2023-06-22T17:48:10;19.70;99.90
52397;DHT22;38322;53.108;6.308;2023-06-22T17:50:41;19.70;99.90
52397;DHT22;38322;53.108;6.308;2023-06-22T17:53:11;19.70;99.90
52397;DHT22;38322;53.108;6.308;2023-06-22T17:55:38;19.70;99.90
52397;DHT22;38322;53.108;6.308;2023-06-22T17:58:04;19.60;99.90
52397;DHT22;38322;53.108;6.308;2023-06-22T18:00:31;19.60;99.90
52397;DHT22;38322;53.108;6.308;2023-06-22T18:02:58;19.50;99.90
52397;DHT22;38322;53.108;6.308;2023-06-22T18:05:32;19.50;99.90
52397;DHT22;38322;53.108;6.308;2023-06-22T18:07:59;19.50;99.90
52397;DHT22;38322;53.108;6.308;2023-06-22T18:10:28;19.40;99.90
52397;DHT22;38322;53.108;6.308;2023-06-22T18:12:55;19.40;99.90
52397;DHT22;38322;53.108;6.308;2023-06-22T18:15:23;19.40;99.90
52397;DHT22;38322;53.108;6.308;2023-06-22T18:17:51;19.30;99.90
52397;DHT22;38322;53.108;6.308;2023-06-22T18:20:18;19.30;99.90
52397;DHT22;38322;53.108;6.308;2023-06-22T18:22:46;19.30;99.90
52397;DHT22;38322;53.108;6.308;2023-06-22T18:25:13;19.30;99.90
52397;DHT22;38322;53.108;6.308;2023-06-22T18:27:41;19.20;99.90
52397;DHT22;38322;53.108;6.308;2023-06-22T18:30:07;19.20;99.90
52397;DHT22;38322;53.108;6.308;2023-06-22T18:32:35;19.20;99.90
52397;DHT22;38322;53.108;6.308;2023-06-22T18:35:01;19.20;99.90
52397;DHT22;38322;53.108;6.308;2023-06-22T18:37:30;19.20;99.90
52397;DHT22;38322;53.108;6.308;2023-06-22T18:39:58;19.20;99.90
52397;DHT22;38322;53.108;6.308;2023-06-22T18:42:24;19.20;99.90
52397;DHT22;38322;53.108;6.308;2023-06-22T18:44:52;19.10;99.90
52397;DHT22;38322;53.108;6.308;2023-06-22T18:47:26;19.10;99.90
52397;DHT22;38322;53.108;6.308;2023-06-22T18:50:01;19.10;99.90
52397;DHT22;38322;53.108;6.308;2023-06-22T18:52:29;19.10;99.90
52397;DHT22;38322;53.108;6.308;2023-06-22T18:54:56;19.10;99.90
52397;DHT22;38322;53.108;6.308;2023-06-22T19:05:16;19.00;99.90
52397;DHT22;38322;53.108;6.308;2023-06-22T19:13:20;19.00;99.90
52397;DHT22;38322;53.108;6.308;2023-06-22T19:15:57;19.00;99.90
52397;DHT22;38322;53.108;6.308;2023-06-22T19:18:26;18.90;99.90
52397;DHT22;38322;53.108;6.308;2023-06-22T19:21:10;18.90;99.90
52397;DHT22;38322;53.108;6.308;2023-06-22T19:23:38;18.90;99.90
52397;DHT22;38322;53.108;6.308;2023-06-22T19:26:08;18.90;99.90
52397;DHT22;38322;53.108;6.308;2023-06-22T19:28:44;18.80;99.90
52397;DHT22;38322;53.108;6.308;2023-06-22T19:31:10;18.80;99.90
52397;DHT22;38322;53.108;6.308;2023-06-22T19:33:37;18.80;99.90
52397;DHT22;38322;53.108;6.308;2023-06-22T19:36:04;18.80;99.90
52397;DHT22;38322;53.108;6.308;2023-06-22T19:38:30;18.70;99.90
52397;DHT22;38322;53.108;6.308;2023-06-22T19:40:57;18.70;99.90
52397;DHT22;38322;53.108;6.308;2023-06-22T19:43:28;18.70;99.90
52397;DHT22;38322;53.108;6.308;2023-06-22T19:45:55;18.70;99.90
52397;DHT22;38322;53.108;6.308;2023-06-22T19:48:25;18.60;99.90
52397;DHT22;38322;53.108;6.308;2023-06-22T19:50:53;18.60;99.90
52397;DHT22;38322;53.108;6.308;2023-06-22T19:53:19;18.60;99.90
52397;DHT22;38322;53.108;6.308;2023-06-22T19:55:47;18.60;99.90
52397;DHT22;38322;53.108;6.308;2023-06-22T19:58:16;18.50;99.90
52397;DHT22;38322;53.108;6.308;2023-06-22T20:00:42;18.60;99.90
